Time;durP1;ratioP1;P1;durP2;ratioP2;P2;SDS_P1;SDS_P2;PMS_P1;PMS_P2;Temp;Humidity;BMP_temperature;BMP_pressure;BME280_temperature;BME280_humidity;BME280_pressure;Samples;Min_cycle;Max_cycle;Signal;HPM_P1;HPM_P2
2023/10/24 00:00:56;;;;;;;18.80;10.07;;;9.40;99.90;;;;;;5034956;28;20217;-50
2023/10/24 00:03:22;;;;;;;14.23;9.67;;;9.40;99.90;;;;;;5035651;28;20187;-49
2023/10/24 00:05:48;;;;;;;14.53;8.90;;;9.40;99.90;;;;;;5035038;28;20683;-49
2023/10/24 00:08:14;;;;;;;16.20;9.33;;;9.40;99.90;;;;;;5034673;28;20244;-48
2023/10/24 00:10:39;;;;;;;16.37;9.40;;;9.40;99.90;;;;;;5034592;28;21001;-48
2023/10/24 00:13:05;;;;;;;19.13;9.60;;;9.40;99.90;;;;;;5033722;28;20505;-48
2023/10/24 00:15:30;;;;;;;12.10;9.03;;;9.40;99.90;;;;;;5034906;28;20634;-48
2023/10/24 00:17:56;;;;;;;15.10;9.10;;;9.40;99.90;;;;;;5034695;28;20275;-49
2023/10/24 00:20:21;;;;;;;13.63;9.37;;;9.30;99.90;;;;;;5034769;28;20184;-48
2023/10/24 00:22:47;;;;;;;17.57;10.87;;;9.30;99.90;;;;;;5034477;28;20182;-48
2023/10/24 00:25:13;;;;;;;23.07;11.80;;;9.30;99.90;;;;;;5034381;28;20185;-50
2023/10/24 00:27:39;;;;;;;16.07;10.27;;;9.40;99.90;;;;;;5034731;28;20295;-48
2023/10/24 00:30:07;;;;;;;18.43;10.73;;;9.40;99.90;;;;;;5034634;28;20521;-48
2023/10/24 00:32:32;;;;;;;16.67;10.40;;;9.50;99.90;;;;;;5034796;28;20197;-48
2023/10/24 00:34:58;;;;;;;15.20;10.90;;;9.50;99.90;;;;;;5034565;28;20417;-48
2023/10/24 00:37:23;;;;;;;19.17;11.97;;;9.50;99.90;;;;;;5034618;28;20219;-48
2023/10/24 00:39:49;;;;;;;18.30;10.83;;;9.60;99.90;;;;;;5034278;28;20652;-48
2023/10/24 00:42:15;;;;;;;20.47;11.87;;;9.60;99.90;;;;;;5034403;28;20632;-48
2023/10/24 00:44:40;;;;;;;15.97;11.07;;;9.60;99.90;;;;;;5034366;28;20278;-49
2023/10/24 00:47:06;;;;;;;16.17;11.47;;;9.60;99.90;;;;;;5034238;28;20203;-51
2023/10/24 00:49:32;;;;;;;20.17;12.50;;;9.60;99.90;;;;;;5034361;28;20220;-48
2023/10/24 00:51:58;;;;;;;21.83;12.27;;;9.60;99.90;;;;;;5033606;28;20703;-49
2023/10/24 00:54:25;;;;;;;21.17;11.37;;;9.70;99.90;;;;;;5034147;28;20417;-49
2023/10/24 00:56:51;;;;;;;18.30;11.97;;;9.70;99.90;;;;;;5034324;28;20571;-49
2023/10/24 00:59:19;;;;;;;17.87;12.40;;;9.80;99.90;;;;;;5034037;28;20513;-48
2023/10/24 01:01:45;;;;;;;18.03;13.10;;;9.80;99.90;;;;;;5034088;28;20552;-50
2023/10/24 01:04:11;;;;;;;18.80;12.90;;;9.80;99.90;;;;;;5034267;28;20507;-48
2023/10/24 01:06:37;;;;;;;19.70;13.10;;;9.80;99.90;;;;;;5034127;28;20215;-49
2023/10/24 01:09:03;;;;;;;22.20;12.60;;;9.90;99.90;;;;;;5033865;28;20443;-49
2023/10/24 01:11:29;;;;;;;22.07;13.40;;;9.90;99.90;;;;;;5033589;28;20202;-48
2023/10/24 01:13:56;;;;;;;18.70;12.47;;;9.90;99.90;;;;;;5033860;28;20418;-48
2023/10/24 01:16:22;;;;;;;19.20;12.80;;;10.00;99.90;;;;;;5034122;28;20195;-48
2023/10/24 01:18:47;;;;;;;21.70;13.77;;;10.00;99.90;;;;;;5033545;28;20924;-48
2023/10/24 01:21:13;;;;;;;23.00;13.87;;;10.00;99.90;;;;;;5034037;28;20187;-48
2023/10/24 01:23:40;;;;;;;21.53;14.00;;;10.10;98.70;;;;;;5033378;28;20212;-48
2023/10/24 01:26:07;;;;;;;18.70;12.50;;;10.10;90.20;;;;;;5033666;28;20218;-49
2023/10/24 01:28:33;;;;;;;16.40;12.57;;;10.10;85.20;;;;;;5033662;28;20822;-49
2023/10/24 01:30:59;;;;;;;24.13;13.70;;;10.20;91.20;;;;;;5033319;28;20504;-48
2023/10/24 01:33:24;;;;;;;22.30;13.40;;;10.20;75.10;;;;;;5033468;28;20289;-48
2023/10/24 01:35:50;;;;;;;17.90;12.73;;;10.20;50.30;;;;;;5033508;28;20193;-48
2023/10/24 01:38:15;;;;;;;22.70;13.40;;;10.20;58.50;;;;;;5033562;28;20186;-48
2023/10/24 01:40:41;;;;;;;21.97;13.00;;;10.20;60.50;;;;;;5033446;28;20180;-48
2023/10/24 01:43:06;;;;;;;19.60;13.63;;;10.20;56.70;;;;;;5033391;28;20181;-48
2023/10/24 01:45:32;;;;;;;21.67;12.60;;;10.20;52.80;;;;;;5033288;28;20183;-48
2023/10/24 01:47:58;;;;;;;20.83;13.27;;;10.20;38.70;;;;;;5033356;28;20213;-49
2023/10/24 01:50:23;;;;;;;16.03;11.40;;;10.20;37.70;;;;;;5033313;28;20272;-48
2023/10/24 01:52:49;;;;;;;19.77;12.80;;;10.20;52.90;;;;;;5033569;28;20500;-48
2023/10/24 01:55:15;;;;;;;15.93;12.10;;;10.20;59.60;;;;;;5032966;28;20284;-48
2023/10/24 01:57:40;;;;;;;19.03;12.70;;;10.20;67.50;;;;;;5033634;28;20205;-48
2023/10/24 02:00:07;;;;;;;19.20;12.30;;;10.50;65.20;;;;;;5033404;28;20181;-48
2023/10/24 02:02:32;;;;;;;17.00;11.73;;;10.20;70.30;;;;;;5033096;28;20619;-48
2023/10/24 02:04:58;;;;;;;19.97;12.40;;;10.20;66.50;;;;;;5033148;28;20421;-49
2023/10/24 02:07:27;;;;;;;18.87;12.77;;;10.20;75.00;;;;;;5033413;28;20213;-48
2023/10/24 02:09:53;;;;;;;18.33;12.40;;;10.20;87.70;;;;;;5033300;28;20202;-48
2023/10/24 02:12:18;;;;;;;28.67;11.90;;;10.30;73.90;;;;;;5033396;28;20805;-48
2023/10/24 02:14:44;;;;;;;16.30;11.87;;;10.30;51.70;;;;;;5033482;28;20416;-48
2023/10/24 02:17:10;;;;;;;19.87;11.93;;;10.30;55.00;;;;;;5032980;28;20182;-48
2023/10/24 02:19:35;;;;;;;18.43;12.17;;;10.30;41.10;;;;;;5033064;28;20213;-48
2023/10/24 02:22:01;;;;;;;16.83;11.63;;;10.30;49.70;;;;;;5033556;28;20187;-48
2023/10/24 02:24:26;;;;;;;18.47;12.70;;;10.40;51.80;;;;;;5033381;28;20178;-49
2023/10/24 02:26:52;;;;;;;18.43;11.87;;;11.40;38.20;;;;;;5033208;28;20237;-48
2023/10/24 02:29:17;;;;;;;19.87;12.00;;;10.30;42.00;;;;;;5032788;28;20230;-48
2023/10/24 02:31:43;;;;;;;18.57;12.13;;;10.40;39.60;;;;;;5032873;28;20186;-48
2023/10/24 02:34:09;;;;;;;16.37;11.83;;;10.40;18.50;;;;;;5032594;28;20186;-49
2023/10/24 02:36:34;;;;;;;16.43;11.00;;;10.40;1.00;;;;;;5036501;28;20182;-49
2023/10/24 02:39:00;;;;;;;18.67;11.57;;;10.40;1.00;;;;;;5036478;28;20177;-48
2023/10/24 02:41:26;;;;;;;16.07;11.00;;;10.40;1.00;;;;;;5036885;28;20232;-48
2023/10/24 02:43:51;;;;;;;18.73;11.33;;;10.40;13.80;;;;;;5036443;28;20581;-48
2023/10/24 02:46:17;;;;;;;16.77;11.50;;;10.40;25.90;;;;;;5036528;28;20215;-48
2023/10/24 02:48:42;;;;;;;18.83;11.57;;;10.40;24.40;;;;;;5036739;28;20192;-49
2023/10/24 02:51:08;;;;;;;18.03;11.53;;;10.40;38.90;;;;;;5036510;28;20243;-48
2023/10/24 02:53:33;;;;;;;24.37;11.50;;;10.50;50.50;;;;;;5036492;28;20182;-48
2023/10/24 02:56:05;;;;;;;16.17;11.67;;;10.50;22.90;;;;;;5036519;28;20643;-49
2023/10/24 02:58:31;;;;;;;17.00;11.37;;;10.50;26.00;;;;;;5036585;28;20530;-49
2023/10/24 03:01:04;;;;;;;17.60;12.33;;;10.60;39.90;;;;;;5035976;28;20414;-49
2023/10/24 03:03:30;;;;;;;16.33;10.70;;;10.60;38.80;;;;;;5036508;28;20542;-49
2023/10/24 03:05:56;;;;;;;19.83;11.40;;;10.50;44.30;;;;;;5036343;28;20840;-49
2023/10/24 03:08:22;;;;;;;14.10;11.17;;;10.60;78.10;;;;;;5036173;28;20590;-48
2023/10/24 03:10:47;;;;;;;16.60;11.20;;;10.60;92.20;;;;;;5036019;28;20185;-49
2023/10/24 03:13:13;;;;;;;15.97;11.07;;;10.60;95.40;;;;;;5036198;28;20637;-49
2023/10/24 03:15:40;;;;;;;17.10;11.20;;;10.60;99.90;;;;;;5035806;28;20202;-49
2023/10/24 03:18:06;;;;;;;17.50;11.40;;;10.50;99.90;;;;;;5036239;28;20191;-49
2023/10/24 03:20:33;;;;;;;16.07;11.87;;;10.50;99.90;;;;;;5035951;28;20917;-49
2023/10/24 03:22:58;;;;;;;17.40;11.50;;;10.50;99.90;;;;;;5035780;28;20533;-49
2023/10/24 03:25:27;;;;;;;20.60;11.77;;;10.50;99.90;;;;;;5035933;28;20915;-49
2023/10/24 03:27:53;;;;;;;19.60;11.37;;;10.50;99.90;;;;;;5035436;28;20265;-49
2023/10/24 03:30:22;;;;;;;17.43;11.30;;;10.50;99.90;;;;;;5035836;28;20419;-50
2023/10/24 03:32:48;;;;;;;17.10;11.67;;;10.50;99.90;;;;;;5036189;28;20484;-49
2023/10/24 03:35:15;;;;;;;21.30;12.00;;;10.50;99.90;;;;;;5035278;28;20772;-48
2023/10/24 03:37:40;;;;;;;18.60;12.43;;;10.50;99.90;;;;;;5035831;28;20771;-49
2023/10/24 03:40:08;;;;;;;19.87;11.30;;;10.50;99.90;;;;;;5035465;28;20426;-48
2023/10/24 03:42:33;;;;;;;18.63;12.43;;;10.50;99.90;;;;;;5035543;28;20213;-49
2023/10/24 03:44:59;;;;;;;20.13;11.40;;;10.50;99.90;;;;;;5035598;28;20445;-49
2023/10/24 03:47:24;;;;;;;20.43;12.13;;;10.50;99.90;;;;;;5035256;28;20548;-49
2023/10/24 03:49:50;;;;;;;18.30;11.67;;;10.50;99.90;;;;;;5035167;28;20857;-49
2023/10/24 03:52:16;;;;;;;18.93;11.90;;;10.50;99.90;;;;;;5035035;28;20235;-49
2023/10/24 03:54:41;;;;;;;18.70;12.33;;;10.50;99.90;;;;;;5035238;28;20218;-49
2023/10/24 03:57:07;;;;;;;27.00;13.50;;;10.50;99.90;;;;;;5035390;28;20182;-49
2023/10/24 03:59:32;;;;;;;19.30;12.07;;;10.50;99.90;;;;;;5035242;28;20202;-48
2023/10/24 04:01:58;;;;;;;20.03;13.30;;;10.50;99.90;;;;;;5035181;28;20211;-50
2023/10/24 04:04:23;;;;;;;20.47;13.60;;;11.20;99.90;;;;;;5035271;28;20202;-49
2023/10/24 04:06:49;;;;;;;20.67;13.53;;;10.50;99.90;;;;;;5034992;28;20214;-49
2023/10/24 04:09:15;;;;;;;18.83;12.57;;;10.40;99.90;;;;;;5035051;28;20274;-49
2023/10/24 04:11:40;;;;;;;20.13;13.60;;;10.40;99.90;;;;;;5034923;28;20213;-49
2023/10/24 04:14:06;;;;;;;23.80;14.40;;;10.40;99.90;;;;;;5034838;28;20179;-49
2023/10/24 04:16:32;;;;;;;20.93;12.83;;;10.40;99.90;;;;;;5035111;28;20198;-50
2023/10/24 04:18:58;;;;;;;20.67;12.90;;;10.40;99.90;;;;;;5034920;28;20420;-50
2023/10/24 04:21:24;;;;;;;20.17;13.50;;;10.40;99.90;;;;;;5034572;28;20537;-49
2023/10/24 04:23:50;;;;;;;25.27;13.07;;;10.40;99.90;;;;;;5034852;28;20417;-50
2023/10/24 04:26:16;;;;;;;17.83;12.67;;;10.40;99.90;;;;;;5034594;28;20214;-51
2023/10/24 04:28:41;;;;;;;19.40;12.80;;;10.40;99.90;;;;;;5034435;28;20660;-50
2023/10/24 04:31:07;;;;;;;25.63;14.23;;;10.40;99.90;;;;;;5034671;28;20457;-51
2023/10/24 04:33:32;;;;;;;21.07;12.83;;;10.40;99.90;;;;;;5034840;28;20187;-50
2023/10/24 04:35:58;;;;;;;22.97;14.10;;;10.40;99.90;;;;;;5034562;28;20186;-50
2023/10/24 04:38:23;;;;;;;21.37;14.40;;;10.50;99.90;;;;;;5034598;28;20198;-49
2023/10/24 04:40:52;;;;;;;21.10;14.57;;;10.50;99.90;;;;;;5034444;28;20187;-50
2023/10/24 04:43:18;;;;;;;22.20;14.00;;;10.60;99.90;;;;;;5034817;28;20190;-50
2023/10/24 04:45:44;;;;;;;22.77;12.73;;;11.60;99.90;;;;;;5034524;28;20485;-49
2023/10/24 04:48:09;;;;;;;20.57;13.93;;;10.60;99.90;;;;;;5034381;28;20525;-49
2023/10/24 04:50:38;;;;;;;30.20;15.93;;;10.50;99.90;;;;;;5033810;28;20238;-49
2023/10/24 04:53:03;;;;;;;19.87;14.70;;;10.50;99.90;;;;;;5034397;28;20193;-50
2023/10/24 04:55:29;;;;;;;21.53;14.87;;;10.50;99.90;;;;;;5034124;28;20919;-51
2023/10/24 04:57:54;;;;;;;30.80;14.97;;;10.50;99.90;;;;;;5033469;28;20544;-49
2023/10/24 05:00:20;;;;;;;22.87;13.70;;;10.50;99.90;;;;;;5033876;28;20578;-49
2023/10/24 05:02:46;;;;;;;22.83;14.67;;;10.50;99.90;;;;;;5034058;28;20198;-49
2023/10/24 05:05:12;;;;;;;20.90;13.70;;;10.50;99.90;;;;;;5034187;28;20191;-50
2023/10/24 05:07:38;;;;;;;23.17;14.63;;;10.50;99.90;;;;;;5034102;28;20954;-49
2023/10/24 05:10:04;;;;;;;19.33;14.17;;;10.50;99.90;;;;;;5033859;28;20257;-49
2023/10/24 05:12:29;;;;;;;20.83;14.03;;;10.50;99.90;;;;;;5034215;28;20226;-49
2023/10/24 05:14:55;;;;;;;21.53;14.27;;;10.50;99.90;;;;;;5033788;28;20834;-50
2023/10/24 05:17:21;;;;;;;20.93;13.63;;;10.50;99.90;;;;;;5033719;28;20186;-49
2023/10/24 05:19:46;;;;;;;20.57;13.47;;;10.50;99.90;;;;;;5033564;28;20668;-49
2023/10/24 05:22:13;;;;;;;23.10;14.93;;;10.60;99.90;;;;;;5033591;28;20511;-50
2023/10/24 05:24:39;;;;;;;25.03;15.20;;;10.50;99.90;;;;;;5033846;28;20187;-49
2023/10/24 05:27:05;;;;;;;29.30;14.57;;;10.50;99.90;;;;;;5033880;28;20469;-50
2023/10/24 05:29:34;;;;;;;23.60;14.20;;;10.50;99.90;;;;;;5033350;28;20209;-49
2023/10/24 05:31:59;;;;;;;24.97;15.67;;;10.50;99.90;;;;;;5033738;28;20192;-49
2023/10/24 05:34:31;;;;;;;24.00;15.40;;;10.50;99.90;;;;;;5033511;28;20422;-51
2023/10/24 05:36:57;;;;;;;23.67;14.57;;;10.40;99.90;;;;;;5033556;28;20187;-49
2023/10/24 05:39:29;;;;;;;22.63;14.57;;;10.50;99.90;;;;;;5033521;28;20414;-49
2023/10/24 05:41:55;;;;;;;21.30;14.63;;;10.50;99.90;;;;;;5033541;28;20432;-49
2023/10/24 05:44:20;;;;;;;22.70;15.63;;;10.40;99.90;;;;;;5033378;28;20411;-49
2023/10/24 05:46:46;;;;;;;22.33;15.30;;;11.40;99.90;;;;;;5033026;28;20730;-50
2023/10/24 05:49:12;;;;;;;21.63;15.03;;;10.40;99.90;;;;;;5033345;28;20186;-49
2023/10/24 05:51:37;;;;;;;24.87;14.93;;;10.40;99.90;;;;;;5033708;28;20234;-49
2023/10/24 05:54:03;;;;;;;25.13;15.00;;;10.40;99.90;;;;;;5048855;28;20182;-49
2023/10/24 05:56:30;;;;;;;26.10;14.60;;;10.40;99.90;;;;;;5033378;28;20556;-49
2023/10/24 05:58:56;;;;;;;27.07;15.63;;;10.40;99.90;;;;;;5032888;28;20710;-49
2023/10/24 06:01:22;;;;;;;23.20;14.27;;;10.40;99.90;;;;;;5033074;28;20410;-49
2023/10/24 06:03:47;;;;;;;22.50;14.93;;;10.40;99.90;;;;;;5032793;28;20321;-49
2023/10/24 06:06:13;;;;;;;24.07;15.07;;;10.40;99.90;;;;;;5033325;28;20210;-49
2023/10/24 06:08:39;;;;;;;25.20;15.63;;;10.40;99.90;;;;;;5033180;28;20266;-49
2023/10/24 06:11:05;;;;;;;22.20;14.43;;;10.40;99.90;;;;;;5036960;28;20608;-49
2023/10/24 06:13:34;;;;;;;20.70;14.33;;;10.40;99.90;;;;;;5037484;28;20409;-49
2023/10/24 06:16:18;;;;;;;27.43;16.27;;;10.50;99.90;;;;;;5037189;28;20425;-49
2023/10/24 06:18:43;;;;;;;26.57;16.03;;;10.50;99.90;;;;;;5037106;28;20493;-49
2023/10/24 06:21:11;;;;;;;25.80;16.13;;;10.50;99.90;;;;;;5036930;28;20503;-49
2023/10/24 06:23:38;;;;;;;25.70;15.80;;;10.50;99.90;;;;;;5036908;28;20586;-49
2023/10/24 06:26:04;;;;;;;28.53;16.10;;;10.50;99.90;;;;;;5036702;28;20476;-49
2023/10/24 06:28:29;;;;;;;26.77;16.70;;;10.50;99.90;;;;;;5041911;28;20444;-49
2023/10/24 06:31:00;;;;;;;26.30;16.80;;;10.50;99.90;;;;;;5050281;28;20527;-49
2023/10/24 06:33:29;;;;;;;26.20;16.93;;;10.50;99.90;;;;;;5049730;28;20183;-49
2023/10/24 06:35:59;;;;;;;35.80;17.10;;;10.50;99.90;;;;;;5046809;28;20844;-49
2023/10/24 06:38:25;;;;;;;21.93;15.50;;;10.60;99.90;;;;;;5049376;28;20789;-49
2023/10/24 06:40:51;;;;;;;22.70;16.40;;;10.60;99.90;;;;;;5050804;28;20537;-49
2023/10/24 06:43:18;;;;;;;33.23;17.57;;;10.60;99.90;;;;;;5050637;28;20536;-49
2023/10/24 06:45:45;;;;;;;27.07;16.87;;;10.60;99.90;;;;;;5049565;28;20593;-50
2023/10/24 06:48:11;;;;;;;28.00;17.50;;;10.70;99.90;;;;;;5050737;28;20436;-50
2023/10/24 06:50:40;;;;;;;28.30;16.50;;;10.70;99.90;;;;;;5049083;28;20468;-50
2023/10/24 06:53:08;;;;;;;32.00;17.63;;;10.70;99.90;;;;;;5050000;28;20440;-50
2023/10/24 06:55:34;;;;;;;26.57;16.90;;;10.60;99.90;;;;;;5049998;28;20436;-50
2023/10/24 06:58:00;;;;;;;28.93;17.90;;;10.60;99.90;;;;;;5049788;28;20440;-52
2023/10/24 07:00:26;;;;;;;29.47;18.10;;;10.60;99.90;;;;;;5040683;28;20509;-51
2023/10/24 07:02:52;;;;;;;27.63;17.37;;;10.60;99.90;;;;;;5036052;28;20428;-50
2023/10/24 07:05:18;;;;;;;33.20;19.17;;;10.60;99.90;;;;;;5036435;28;20678;-49
2023/10/24 07:07:44;;;;;;;28.80;19.57;;;10.70;99.90;;;;;;5035938;28;20818;-49
2023/10/24 07:10:10;;;;;;;32.27;19.40;;;10.70;99.90;;;;;;5041222;28;20436;-49
2023/10/24 07:12:36;;;;;;;28.57;19.27;;;10.70;99.90;;;;;;5049542;28;20221;-50
2023/10/24 07:15:03;;;;;;;31.50;19.23;;;10.80;99.90;;;;;;5049491;28;20194;-49
2023/10/24 07:17:29;;;;;;;30.40;19.40;;;10.80;99.90;;;;;;5050005;28;20191;-50
2023/10/24 07:19:56;;;;;;;30.73;19.37;;;10.80;99.90;;;;;;5048903;28;20452;-50
2023/10/24 07:22:21;;;;;;;24.50;17.93;;;10.80;99.90;;;;;;5049787;28;20535;-49
2023/10/24 07:24:47;;;;;;;28.70;19.50;;;10.80;99.90;;;;;;5047907;28;20516;-50
2023/10/24 07:27:12;;;;;;;27.50;20.20;;;10.80;99.90;;;;;;5049064;28;20671;-49
2023/10/24 07:29:38;;;;;;;33.43;20.47;;;10.80;99.90;;;;;;5048719;28;20214;-50
2023/10/24 07:32:04;;;;;;;33.63;20.90;;;10.90;99.90;;;;;;5049728;28;20178;-50
2023/10/24 07:34:33;;;;;;;26.00;19.70;;;10.80;99.90;;;;;;5049157;28;20182;-50
2023/10/24 07:36:59;;;;;;;30.87;19.57;;;10.90;99.90;;;;;;5047299;28;20277;-49
2023/10/24 07:39:25;;;;;;;31.77;21.67;;;11.00;99.90;;;;;;5049660;28;20436;-50
2023/10/24 07:41:50;;;;;;;30.60;19.10;;;10.90;99.90;;;;;;5048035;28;20525;-52
2023/10/24 07:44:16;;;;;;;26.23;19.30;;;10.90;99.90;;;;;;5046476;28;20682;-49
2023/10/24 07:46:41;;;;;;;29.37;18.87;;;10.90;99.90;;;;;;5047907;28;20208;-50
2023/10/24 07:49:07;;;;;;;27.00;19.07;;;10.90;99.90;;;;;;5045513;28;20182;-50
2023/10/24 07:51:33;;;;;;;25.93;18.67;;;10.90;99.90;;;;;;5048336;28;20237;-49
2023/10/24 07:53:58;;;;;;;28.37;17.57;;;11.00;99.90;;;;;;5049063;28;20185;-49
2023/10/24 07:56:24;;;;;;;28.67;18.00;;;10.90;99.90;;;;;;5049237;28;20290;-49
2023/10/24 07:58:50;;;;;;;31.33;18.97;;;10.90;99.90;;;;;;5049206;28;20189;-48
2023/10/24 08:01:18;;;;;;;24.70;18.13;;;10.90;99.90;;;;;;5048305;28;20597;-49
2023/10/24 08:03:44;;;;;;;37.10;19.87;;;10.90;99.90;;;;;;5047913;28;20270;-48
2023/10/24 08:06:10;;;;;;;29.43;18.67;;;10.90;99.90;;;;;;5049378;28;20464;-50
2023/10/24 08:08:35;;;;;;;23.33;17.23;;;10.90;99.90;;;;;;5048229;28;20441;-49
2023/10/24 08:11:01;;;;;;;25.60;17.50;;;10.90;99.90;;;;;;5048698;28;20185;-50
2023/10/24 08:13:27;;;;;;;25.10;17.57;;;11.00;99.90;;;;;;5049014;28;20202;-49
2023/10/24 08:15:53;;;;;;;27.10;18.90;;;10.90;99.90;;;;;;5049550;28;20440;-49
2023/10/24 08:18:19;;;;;;;23.63;18.07;;;10.90;99.90;;;;;;5049062;28;20186;-49
2023/10/24 08:20:45;;;;;;;28.40;19.37;;;11.00;99.90;;;;;;5047468;28;20254;-49
2023/10/24 08:23:11;;;;;;;26.90;18.17;;;11.00;99.90;;;;;;5049529;28;20475;-48
2023/10/24 08:25:36;;;;;;;31.20;19.13;;;11.00;99.90;;;;;;5047364;28;20552;-49
2023/10/24 08:28:02;;;;;;;27.13;18.83;;;11.00;99.90;;;;;;5048783;28;20547;-50
2023/10/24 08:30:31;;;;;;;23.07;17.60;;;11.00;99.90;;;;;;5047951;28;20195;-49
2023/10/24 08:32:57;;;;;;;26.10;18.63;;;10.90;99.90;;;;;;5047221;28;20449;-49
2023/10/24 08:35:23;;;;;;;28.97;18.17;;;11.00;99.90;;;;;;5048648;28;20978;-49
2023/10/24 08:37:48;;;;;;;27.80;18.70;;;11.00;99.90;;;;;;5049013;28;20190;-49
2023/10/24 08:40:14;;;;;;;33.67;18.67;;;11.00;99.90;;;;;;5047786;28;20553;-49
2023/10/24 08:42:41;;;;;;;31.50;19.17;;;11.00;99.90;;;;;;5048196;28;20732;-49
2023/10/24 08:45:08;;;;;;;35.27;18.23;;;11.00;99.90;;;;;;5048141;28;20221;-49
2023/10/24 08:47:35;;;;;;;25.50;17.87;;;11.00;99.90;;;;;;5046843;28;20555;-48
2023/10/24 08:50:02;;;;;;;31.13;19.97;;;11.00;99.90;;;;;;5048576;28;20551;-49
2023/10/24 08:52:29;;;;;;;29.20;19.00;;;11.00;99.90;;;;;;5047186;28;20480;-49
2023/10/24 08:54:57;;;;;;;24.93;18.50;;;11.00;99.90;;;;;;5048563;28;20514;-49
2023/10/24 08:57:27;;;;;;;26.33;19.33;;;11.00;99.90;;;;;;5047147;28;20446;-49
2023/10/24 08:59:56;;;;;;;36.30;19.37;;;11.00;99.90;;;;;;5047793;28;20456;-48
2023/10/24 09:02:22;;;;;;;27.50;20.60;;;11.10;99.90;;;;;;5048379;28;20814;-48
2023/10/24 09:04:50;;;;;;;26.00;19.10;;;11.20;99.90;;;;;;5047065;28;20456;-49
2023/10/24 09:07:15;;;;;;;32.57;19.90;;;11.30;99.90;;;;;;5048328;28;20213;-50
2023/10/24 09:09:41;;;;;;;41.53;21.40;;;11.30;99.90;;;;;;5046572;28;20436;-50
2023/10/24 09:12:08;;;;;;;32.83;21.03;;;11.30;99.90;;;;;;5047884;28;20218;-48
2023/10/24 09:14:34;;;;;;;29.80;19.73;;;11.40;99.90;;;;;;5047506;28;20205;-48
2023/10/24 09:17:03;;;;;;;26.40;20.10;;;11.60;99.90;;;;;;5048112;28;20821;-48
2023/10/24 09:19:29;;;;;;;28.60;20.87;;;11.40;99.90;;;;;;5047818;28;20190;-48
2023/10/24 09:21:56;;;;;;;35.27;22.33;;;11.40;99.90;;;;;;5047564;28;20437;-49
2023/10/24 09:24:22;;;;;;;35.10;21.90;;;11.50;99.90;;;;;;5048332;28;20429;-48
2023/10/24 09:26:59;;;;;;;33.20;21.00;;;11.50;99.90;;;;;;5046459;28;20464;-49
2023/10/24 09:29:29;;;;;;;30.80;21.30;;;11.50;99.90;;;;;;5046658;28;20442;-50
2023/10/24 09:31:58;;;;;;;29.23;19.97;;;11.60;99.90;;;;;;5047418;28;21040;-49
2023/10/24 09:34:24;;;;;;;32.43;21.50;;;11.60;99.90;;;;;;5045440;28;20433;-49
2023/10/24 09:36:50;;;;;;;29.97;21.00;;;11.60;99.90;;;;;;5047216;28;20582;-49
2023/10/24 09:39:16;;;;;;;33.53;21.23;;;11.70;99.90;;;;;;5046973;28;24175;-49
2023/10/24 09:41:45;;;;;;;33.80;22.23;;;11.70;99.90;;;;;;5046946;28;20187;-48
2023/10/24 09:44:11;;;;;;;34.20;22.23;;;11.70;99.90;;;;;;5047586;28;20540;-48
2023/10/24 09:46:38;;;;;;;35.83;23.50;;;11.80;99.90;;;;;;5045864;28;20468;-49
2023/10/24 09:49:05;;;;;;;34.63;25.93;;;11.80;99.90;;;;;;5047958;28;20445;-49
2023/10/24 09:51:38;;;;;;;32.07;24.17;;;11.80;99.90;;;;;;5046272;28;20534;-49
2023/10/24 09:54:07;;;;;;;31.70;23.27;;;11.80;99.90;;;;;;5046956;28;20433;-48
2023/10/24 09:56:33;;;;;;;33.57;24.47;;;11.80;99.90;;;;;;5047276;28;20446;-48
2023/10/24 09:59:00;;;;;;;36.53;25.33;;;11.80;99.90;;;;;;5046204;28;20448;-50
2023/10/24 10:01:28;;;;;;;32.07;23.63;;;11.90;99.90;;;;;;5047599;28;20269;-49
2023/10/24 10:03:58;;;;;;;33.37;22.07;;;12.00;99.90;;;;;;5046115;28;20476;-48
2023/10/24 10:06:29;;;;;;;32.23;23.50;;;11.90;99.90;;;;;;5046755;28;20479;-48
2023/10/24 10:08:58;;;;;;;33.40;22.53;;;11.90;99.90;;;;;;5047558;28;20462;-48
2023/10/24 10:11:27;;;;;;;30.60;22.27;;;12.00;99.90;;;;;;5045945;28;20438;-53
2023/10/24 10:14:37;;;;;;;29.03;20.40;;;12.20;99.90;;;;;;5043649;28;20444;-48
2023/10/24 10:17:14;;;;;;;26.30;19.00;;;12.00;99.90;;;;;;5044648;28;21004;-49
2023/10/24 10:20:03;;;;;;;29.60;21.50;;;12.10;99.90;;;;;;5043887;28;20459;-49
2023/10/24 10:23:03;;;;;;;27.13;20.93;;;12.10;99.90;;;;;;5043908;28;20521;-49
2023/10/24 10:25:37;;;;;;;26.60;20.97;;;12.10;99.90;;;;;;5044509;28;20780;-50
2023/10/24 10:28:35;;;;;;;30.50;20.50;;;12.10;99.90;;;;;;5047721;28;20818;-49
2023/10/24 10:31:25;;;;;;;28.73;22.07;;;12.20;99.90;;;;;;5043639;28;20441;-49
2023/10/24 10:33:54;;;;;;;30.70;21.87;;;12.30;99.90;;;;;;5043696;28;20437;-48
2023/10/24 10:36:19;;;;;;;29.40;19.73;;;12.30;99.90;;;;;;5046108;28;20452;-50
2023/10/24 10:38:47;;;;;;;26.43;19.50;;;12.40;99.90;;;;;;5045453;28;21010;-48
2023/10/24 10:41:22;;;;;;;26.27;19.87;;;12.40;99.90;;;;;;5048579;28;20252;-48
2023/10/24 10:43:59;;;;;;;28.97;20.77;;;12.50;99.90;;;;;;5046374;28;20440;-49
2023/10/24 10:46:26;;;;;;;35.93;21.23;;;12.50;99.90;;;;;;5045595;28;20497;-50
2023/10/24 10:48:59;;;;;;;24.00;19.00;;;12.60;99.90;;;;;;5046815;28;20949;-49
2023/10/24 10:51:32;;;;;;;26.03;19.57;;;12.50;99.90;;;;;;5045861;28;20477;-48
2023/10/24 10:54:37;;;;;;;30.77;20.40;;;12.60;99.90;;;;;;5045993;28;20471;-52
2023/10/24 10:57:04;;;;;;;30.33;19.20;;;12.70;99.90;;;;;;5048237;28;20531;-48
2023/10/24 10:59:49;;;;;;;25.00;18.03;;;12.70;99.90;;;;;;5050096;28;20432;-48
2023/10/24 11:02:30;;;;;;;29.83;19.00;;;12.80;99.90;;;;;;5046572;28;20432;-48
2023/10/24 11:04:56;;;;;;;24.90;18.80;;;12.90;99.90;;;;;;5050542;28;20436;-47
2023/10/24 11:07:50;;;;;;;24.87;18.00;;;12.90;99.90;;;;;;5048837;28;20497;-52
2023/10/24 11:10:16;;;;;;;27.63;18.10;;;13.00;99.90;;;;;;5047028;28;20192;-49
2023/10/24 11:12:51;;;;;;;24.13;16.70;;;12.90;95.40;;;;;;5050570;28;20460;-49
2023/10/24 11:15:17;;;;;;;22.27;17.03;;;12.90;99.90;;;;;;5048839;28;20451;-50
2023/10/24 11:17:43;;;;;;;23.00;17.73;;;12.90;99.90;;;;;;5049919;28;20442;-47
2023/10/24 11:20:09;;;;;;;23.47;16.83;;;12.90;99.90;;;;;;5049802;28;20190;-49
2023/10/24 11:22:37;;;;;;;22.80;17.43;;;12.90;99.90;;;;;;5048833;28;20935;-51
2023/10/24 11:25:08;;;;;;;25.17;15.40;;;13.00;99.90;;;;;;5050522;28;20520;-49
2023/10/24 11:27:34;;;;;;;18.63;15.70;;;13.00;99.90;;;;;;5049319;28;20565;-49
2023/10/24 11:30:00;;;;;;;24.37;16.70;;;13.00;99.90;;;;;;5049664;28;20445;-49
2023/10/24 11:32:26;;;;;;;19.90;14.17;;;13.00;99.90;;;;;;5047696;28;20196;-49
2023/10/24 11:34:51;;;;;;;25.07;15.90;;;13.00;99.90;;;;;;5047653;28;20533;-49
2023/10/24 11:37:17;;;;;;;24.87;16.10;;;13.00;99.90;;;;;;5041761;28;20200;-49
2023/10/24 11:39:42;;;;;;;23.70;15.00;;;13.00;89.70;;;;;;5035798;28;20187;-49
2023/10/24 11:42:08;;;;;;;28.53;17.00;;;13.00;19.90;;;;;;5035231;28;20194;-48
2023/10/24 11:44:34;;;;;;;25.60;15.27;;;13.00;28.40;;;;;;5035272;28;20223;-49
2023/10/24 11:47:02;;;;;;;21.60;15.13;;;13.10;82.20;;;;;;5035231;28;20200;-49
2023/10/24 11:49:34;;;;;;;25.70;14.40;;;13.10;67.80;;;;;;5035441;28;20196;-49
2023/10/24 11:52:00;;;;;;;23.33;15.50;;;13.10;70.60;;;;;;5034989;28;20620;-48
2023/10/24 11:54:26;;;;;;;17.77;14.50;;;13.10;44.40;;;;;;5054024;28;20417;-48
2023/10/24 11:56:56;;;;;;;20.07;13.50;;;13.00;28.10;;;;;;5052413;28;20447;-48
2023/10/24 11:59:21;;;;;;;26.47;14.53;;;13.10;21.90;;;;;;5054449;28;20204;-49
2023/10/24 12:01:47;;;;;;;26.30;14.47;;;13.00;1.00;;;;;;5053283;28;20437;-49
2023/10/24 12:04:13;;;;;;;19.23;14.53;;;13.10;26.00;;;;;;5055206;28;20269;-49
2023/10/24 12:06:39;;;;;;;20.03;15.20;;;13.00;41.20;;;;;;5054476;28;20720;-49
2023/10/24 12:09:06;;;;;;;20.13;14.50;;;13.00;70.00;;;;;;5055008;28;20771;-49
2023/10/24 12:11:35;;;;;;;20.73;13.70;;;13.00;79.10;;;;;;5054565;28;20425;-49
2023/10/24 12:14:02;;;;;;;17.30;14.40;;;13.70;77.90;;;;;;5054694;28;20425;-48
2023/10/24 12:16:31;;;;;;;18.67;15.07;;;13.00;99.90;;;;;;5055014;28;20418;-48
2023/10/24 12:18:57;;;;;;;18.73;13.87;;;13.00;99.90;;;;;;5054876;28;20425;-49
2023/10/24 12:21:23;;;;;;;22.40;14.97;;;13.00;94.50;;;;;;5054948;28;20907;-48
2023/10/24 12:23:49;;;;;;;22.43;15.20;;;13.00;99.90;;;;;;5054449;28;20414;-50
2023/10/24 12:26:15;;;;;;;24.70;14.50;;;13.00;97.70;;;;;;5054230;28;20737;-49
2023/10/24 12:28:43;;;;;;;18.07;14.43;;;13.00;99.90;;;;;;5054249;28;20191;-49